createdAt,value
2022-12-14T00:01:29.098Z,87.45
2022-12-14T00:03:56.329Z,87.08
2022-12-14T00:06:26.664Z,87.47
2022-12-14T00:08:56.522Z,88.06
2022-12-14T00:11:23.520Z,88.15
2022-12-14T00:13:57.338Z,87.34
2022-12-14T00:16:25.733Z,88.00
2022-12-14T00:18:53.742Z,88.28
2022-12-14T00:21:24.153Z,88.28
2022-12-14T00:23:51.743Z,87.94
2022-12-14T00:26:24.688Z,87.75
2022-12-14T00:28:53.202Z,87.40
2022-12-14T00:31:20.733Z,87.86
2022-12-14T00:33:47.140Z,88.00
2022-12-14T00:36:16.794Z,88.14
2022-12-14T00:38:43.249Z,87.95
2022-12-14T00:41:10.879Z,88.30
2022-12-14T00:43:38.014Z,87.91
2022-12-14T00:46:04.692Z,88.04
2022-12-14T00:48:31.927Z,87.90
2022-12-14T00:50:58.662Z,87.48
2022-12-14T00:53:25.809Z,87.53
2022-12-14T00:55:52.610Z,87.10
2022-12-14T00:58:21.690Z,87.16
2022-12-14T01:00:57.705Z,86.63
2022-12-14T01:03:24.299Z,87.12
2022-12-14T01:05:51.013Z,87.51
2022-12-14T01:08:17.415Z,87.76
2022-12-14T01:10:43.834Z,87.49
2022-12-14T01:13:14.117Z,87.55
2022-12-14T01:15:40.609Z,87.69
2022-12-14T01:18:07.029Z,88.26
2022-12-14T01:20:33.438Z,88.73
2022-12-14T01:22:59.830Z,88.18
2022-12-14T01:25:26.444Z,88.60
2022-12-14T01:27:52.833Z,89.28
2022-12-14T01:30:19.559Z,88.69
2022-12-14T01:32:46.746Z,89.04
2022-12-14T01:35:13.228Z,88.42
2022-12-14T01:37:39.609Z,88.13
2022-12-14T01:40:06.466Z,88.27
2022-12-14T01:42:35.896Z,88.29
2022-12-14T01:45:03.198Z,88.98
2022-12-14T01:47:43.216Z,89.04
2022-12-14T01:50:53.998Z,89.10
2022-12-14T01:53:24.517Z,88.67
2022-12-14T01:55:54.365Z,88.90
2022-12-14T01:58:26.066Z,88.90
2022-12-14T02:00:54.996Z,88.96
2022-12-14T02:03:37.955Z,88.81
2022-12-14T02:06:09.870Z,89.08
2022-12-14T02:08:41.815Z,88.92
2022-12-14T02:11:08.217Z,88.14
2022-12-14T02:13:38.961Z,89.03
2022-12-14T02:16:05.730Z,89.19
2022-12-14T02:18:33.002Z,89.30
2022-12-14T02:21:17.985Z,89.48
2022-12-14T02:24:30.236Z,89.11
2022-12-14T02:27:30.632Z,89.62
2022-12-14T02:30:06.624Z,89.65
2022-12-14T02:32:48.087Z,90.16
2022-12-14T02:35:43.755Z,88.64
2022-12-14T02:38:22.235Z,88.88
2022-12-14T02:41:06.659Z,89.66
2022-12-14T02:43:50.828Z,89.03
2022-12-14T02:46:36.291Z,88.44
2022-12-14T02:49:34.643Z,88.11
2022-12-14T02:52:10.362Z,88.42
2022-12-14T02:55:02.980Z,89.16
2022-12-14T02:57:34.472Z,88.33
2022-12-14T03:00:04.043Z,88.37
2022-12-14T03:02:33.475Z,88.69
2022-12-14T03:04:59.952Z,88.54
2022-12-14T03:07:40.299Z,89.46
2022-12-14T03:10:21.218Z,89.49
2022-12-14T03:12:53.845Z,88.69
2022-12-14T03:15:21.773Z,88.58
2022-12-14T03:17:52.785Z,87.50
2022-12-14T03:20:25.610Z,88.54
2022-12-14T03:23:00.717Z,88.47
2022-12-14T03:25:34.588Z,89.15
2022-12-14T03:28:12.327Z,88.98
2022-12-14T03:30:59.966Z,88.49
2022-12-14T03:33:29.520Z,88.96
2022-12-14T03:36:08.986Z,88.17
2022-12-14T03:38:44.204Z,87.88
2022-12-14T03:41:28.664Z,88.47
2022-12-14T03:44:15.905Z,88.50
2022-12-14T03:46:57.742Z,87.91
2022-12-14T03:49:50.895Z,86.94
2022-12-14T03:52:23.107Z,88.63
2022-12-14T03:55:05.524Z,88.54
2022-12-14T03:57:55.450Z,88.89
2022-12-14T04:00:24.736Z,88.97
2022-12-14T04:03:31.112Z,89.15
2022-12-14T04:06:07.371Z,89.56
2022-12-14T04:08:57.289Z,89.32
2022-12-14T04:11:46.548Z,89.12
2022-12-14T04:14:39.958Z,89.43
2022-12-14T04:17:35.817Z,89.71
2022-12-14T04:20:10.706Z,89.65
2022-12-14T04:22:47.113Z,89.39
2022-12-14T04:25:38.007Z,89.55
2022-12-14T04:28:31.110Z,90.18
2022-12-14T04:31:03.074Z,90.48
2022-12-14T04:33:47.353Z,91.03
2022-12-14T04:36:39.990Z,91.21
2022-12-14T04:39:11.571Z,91.49
2022-12-14T04:41:42.778Z,91.75
2022-12-14T04:44:22.495Z,92.71
2022-12-14T04:46:50.730Z,92.29
2022-12-14T04:49:23.614Z,91.61
2022-12-14T04:52:05.227Z,91.72
2022-12-14T04:54:37.481Z,91.38
2022-12-14T04:57:19.323Z,90.80
2022-12-14T04:59:47.311Z,91.44
2022-12-14T05:02:34.115Z,90.77
2022-12-14T05:05:07.915Z,90.07
2022-12-14T05:07:49.214Z,90.48
2022-12-14T05:10:51.966Z,90.37
2022-12-14T05:13:26.271Z,91.04
2022-12-14T05:15:55.821Z,90.84
2022-12-14T05:18:23.034Z,91.10
2022-12-14T05:20:50.088Z,91.21
2022-12-14T05:23:17.202Z,91.46
2022-12-14T05:25:43.663Z,90.41
2022-12-14T05:28:11.219Z,90.74
2022-12-14T05:30:37.756Z,90.99
2022-12-14T05:33:04.552Z,91.11
2022-12-14T05:35:31.045Z,91.18
2022-12-14T05:37:57.445Z,91.64
2022-12-14T05:40:23.832Z,91.71
2022-12-14T05:42:55.447Z,92.28
2022-12-14T05:45:22.329Z,91.91
2022-12-14T05:47:48.782Z,92.34
2022-12-14T05:50:15.182Z,92.01
2022-12-14T05:52:41.573Z,92.55
2022-12-14T05:55:08.433Z,92.37
2022-12-14T05:57:34.817Z,92.06
2022-12-14T06:00:01.198Z,91.93
2022-12-14T06:02:30.821Z,91.39
2022-12-14T06:04:57.298Z,90.55
2022-12-14T06:07:27.689Z,90.21
2022-12-14T06:09:54.733Z,89.63
2022-12-14T06:12:21.180Z,89.67
2022-12-14T06:14:47.618Z,89.34
2022-12-14T06:17:14.021Z,88.95
2022-12-14T06:19:40.405Z,89.11
2022-12-14T06:22:06.825Z,88.79
2022-12-14T06:24:33.211Z,89.98
2022-12-14T06:26:59.602Z,90.24
2022-12-14T06:29:26.197Z,90.29
2022-12-14T06:31:52.652Z,91.32
2022-12-14T06:34:22.204Z,91.54
2022-12-14T06:36:51.317Z,91.97
2022-12-14T06:39:17.698Z,93.25
2022-12-14T06:41:51.774Z,92.31
2022-12-14T06:44:27.457Z,92.07
2022-12-14T06:46:54.124Z,91.80
2022-12-14T06:49:20.569Z,91.63
2022-12-14T06:51:47.004Z,91.70
2022-12-14T06:54:15.044Z,91.80
2022-12-14T06:56:42.845Z,91.32
2022-12-14T06:59:09.679Z,91.41
2022-12-14T07:01:37.415Z,91.64
2022-12-14T07:04:04.908Z,91.91
2022-12-14T07:06:39.802Z,92.32
2022-12-14T07:09:10.898Z,92.32
2022-12-14T07:11:37.301Z,92.04
2022-12-14T07:14:06.134Z,92.94
2022-12-14T07:16:34.234Z,92.16
2022-12-14T07:19:00.929Z,92.41
2022-12-14T07:21:27.447Z,91.81
2022-12-14T07:23:53.929Z,92.40
2022-12-14T07:26:26.453Z,92.27
2022-12-14T07:28:53.761Z,92.48
2022-12-14T07:31:26.724Z,92.51
2022-12-14T07:33:58.677Z,92.61
2022-12-14T07:36:30.289Z,92.27
2022-12-14T07:38:56.993Z,92.00
2022-12-14T07:41:26.326Z,91.74
2022-12-14T07:43:54.761Z,91.57
2022-12-14T07:46:24.105Z,91.55
2022-12-14T07:48:55.309Z,91.48
2022-12-14T07:51:30.084Z,91.07
2022-12-14T07:53:56.816Z,90.94
2022-12-14T07:56:25.397Z,91.11
2022-12-14T07:58:56.930Z,91.76
2022-12-14T08:01:33.330Z,92.40
2022-12-14T08:04:05.202Z,92.11
2022-12-14T08:06:32.291Z,92.12
2022-12-14T08:08:59.002Z,91.99
2022-12-14T08:11:25.696Z,92.79
2022-12-14T08:13:56.691Z,92.89
2022-12-14T08:16:23.787Z,93.14
2022-12-14T08:18:52.496Z,93.29
2022-12-14T08:21:21.500Z,94.27
2022-12-14T08:23:48.885Z,94.70
2022-12-14T08:26:15.881Z,94.32
2022-12-14T08:28:42.270Z,94.53
2022-12-14T08:31:20.342Z,94.45
2022-12-14T08:33:47.609Z,95.22
2022-12-14T08:36:25.457Z,95.22
2022-12-14T08:38:57.034Z,94.71
2022-12-14T08:41:24.564Z,95.36
2022-12-14T08:43:56.699Z,95.21
2022-12-14T08:46:24.191Z,95.02
2022-12-14T08:48:52.448Z,95.48
2022-12-14T08:51:19.707Z,95.28
2022-12-14T08:53:52.002Z,95.01
2022-12-14T08:56:21.566Z,95.02
2022-12-14T08:58:51.161Z,95.68
2022-12-14T09:01:29.996Z,95.58
2022-12-14T09:04:05.949Z,95.89
2022-12-14T09:06:37.479Z,96.17
2022-12-14T09:09:13.601Z,95.01
2022-12-14T09:11:42.545Z,95.28
2022-12-14T09:14:08.942Z,96.21
2022-12-14T09:16:41.406Z,96.10
2022-12-14T09:19:07.837Z,96.27
2022-12-14T09:21:34.741Z,96.48
2022-12-14T09:24:01.606Z,96.18
2022-12-14T09:26:28.159Z,96.03
2022-12-14T09:28:56.512Z,96.62
2022-12-14T09:31:24.734Z,96.60
2022-12-14T09:33:51.603Z,96.14
2022-12-14T09:36:23.957Z,96.30
2022-12-14T09:38:52.422Z,96.86
2022-12-14T09:41:36.996Z,95.92
2022-12-14T09:44:31.241Z,96.52
2022-12-14T09:47:21.002Z,97.25
2022-12-14T09:49:53.099Z,96.54
2022-12-14T09:52:48.831Z,97.02
2022-12-14T09:55:31.851Z,96.67
2022-12-14T09:58:03.517Z,96.43
2022-12-14T10:00:37.593Z,95.89
2022-12-14T10:03:19.264Z,96.35
2022-12-14T10:06:19.092Z,96.07
2022-12-14T10:08:54.936Z,96.14
2022-12-14T10:11:40.504Z,96.66
2022-12-14T10:14:29.859Z,96.46
2022-12-14T10:17:09.458Z,96.64
2022-12-14T10:19:51.462Z,97.13
2022-12-14T10:22:38.419Z,97.80
2022-12-14T10:25:13.962Z,97.26
2022-12-14T10:30:37.883Z,96.60
2022-12-14T10:33:16.841Z,96.30
2022-12-14T10:35:50.932Z,96.16
2022-12-14T10:38:26.351Z,95.93
2022-12-14T10:41:31.430Z,95.20
2022-12-14T10:44:23.182Z,95.60
2022-12-14T10:47:11.760Z,95.74
2022-12-14T10:50:03.027Z,95.32
2022-12-14T10:52:36.998Z,95.54
2022-12-14T10:55:12.177Z,94.70
2022-12-14T10:57:38.623Z,94.53
2022-12-14T11:00:31.310Z,94.30
2022-12-14T11:02:58.221Z,95.20
2022-12-14T11:05:51.036Z,94.67
2022-12-14T11:08:41.032Z,95.79
2022-12-14T11:11:24.743Z,95.22
2022-12-14T11:13:54.378Z,95.62
2022-12-14T11:16:37.131Z,95.71
2022-12-14T11:19:06.011Z,95.30
2022-12-14T11:21:35.823Z,94.85
2022-12-14T11:24:22.245Z,94.82
2022-12-14T11:26:58.977Z,95.14
2022-12-14T11:29:34.688Z,94.43
2022-12-14T11:32:01.700Z,94.13
2022-12-14T11:34:37.674Z,93.63
2022-12-14T11:37:12.947Z,93.36
2022-12-14T11:39:42.404Z,93.40
2022-12-14T11:42:17.405Z,93.20
2022-12-14T11:44:45.945Z,92.46
2022-12-14T11:47:30.793Z,92.80
2022-12-14T11:49:57.841Z,92.28
2022-12-14T11:52:42.513Z,92.19
2022-12-14T11:55:26.486Z,92.26
2022-12-14T11:57:59.342Z,92.15
2022-12-14T12:00:30.771Z,92.85
2022-12-14T12:03:01.828Z,92.47
2022-12-14T12:05:32.625Z,91.68
2022-12-14T12:08:02.105Z,91.54
2022-12-14T12:10:49.678Z,91.12
2022-12-14T12:13:35.171Z,91.23
2022-12-14T12:16:05.898Z,91.05
2022-12-14T12:18:45.813Z,91.08
2022-12-14T12:21:18.482Z,90.69
2022-12-14T12:23:58.620Z,90.53
2022-12-14T12:26:32.332Z,90.37
2022-12-14T12:29:36.458Z,90.85
2022-12-14T12:32:23.966Z,90.36
2022-12-14T12:35:11.279Z,90.23
2022-12-14T12:37:56.990Z,90.43
2022-12-14T12:40:32.012Z,90.03
2022-12-14T12:43:12.830Z,90.22
2022-12-14T12:45:46.532Z,90.09
2022-12-14T12:48:28.186Z,90.08
2022-12-14T12:51:00.820Z,90.42
2022-12-14T12:53:33.481Z,90.54
2022-12-14T12:56:14.630Z,90.53
2022-12-14T12:58:46.351Z,90.56
2022-12-14T13:01:24.190Z,90.79
2022-12-14T13:03:55.277Z,91.18
2022-12-14T13:06:35.852Z,91.22
2022-12-14T13:09:17.395Z,90.69
2022-12-14T13:11:45.694Z,90.91
2022-12-14T13:14:39.813Z,91.29
2022-12-14T13:17:14.897Z,91.55
2022-12-14T13:19:50.568Z,91.24
2022-12-14T13:22:24.862Z,91.13
2022-12-14T13:24:58.851Z,90.81
2022-12-14T13:27:42.042Z,90.58
2022-12-14T13:30:43.075Z,90.11
2022-12-14T13:33:33.298Z,90.24
2022-12-14T13:36:28.059Z,90.29
2022-12-14T13:39:18.253Z,90.21
2022-12-14T13:41:56.351Z,90.05
2022-12-14T13:45:01.295Z,90.42
2022-12-14T13:48:03.586Z,90.37
2022-12-14T13:50:36.603Z,90.46
2022-12-14T13:53:27.631Z,90.78
2022-12-14T13:56:00.007Z,91.09
2022-12-14T13:58:44.474Z,91.35
2022-12-14T14:01:35.123Z,91.39
2022-12-14T14:04:10.411Z,91.74
2022-12-14T14:06:50.549Z,91.31
2022-12-14T14:09:26.325Z,90.67
2022-12-14T14:11:57.143Z,91.40
2022-12-14T14:14:33.466Z,91.58
2022-12-14T14:17:08.568Z,90.90
2022-12-14T14:19:39.508Z,91.10
2022-12-14T14:22:25.832Z,90.92
2022-12-14T14:25:00.920Z,90.71
2022-12-14T14:27:37.126Z,91.28
2022-12-14T14:30:26.387Z,91.43
2022-12-14T14:32:54.175Z,92.14
2022-12-14T14:35:37.733Z,91.83
2022-12-14T14:38:23.330Z,91.30
2022-12-14T14:43:49.624Z,90.89
2022-12-14T14:46:22.273Z,90.73
2022-12-14T14:48:54.537Z,90.99
2022-12-14T14:51:28.951Z,91.33
2022-12-14T14:54:56.096Z,90.78
2022-12-14T14:57:35.055Z,91.90
2022-12-14T15:00:05.006Z,91.16
2022-12-14T15:02:39.202Z,91.04
2022-12-14T15:05:33.200Z,90.69
2022-12-14T15:07:55.094Z,90.84
2022-12-14T15:10:29.741Z,90.44
2022-12-14T15:13:03.196Z,90.21
2022-12-14T15:15:37.211Z,90.08
2022-12-14T15:18:30.460Z,89.72
2022-12-14T15:21:07.838Z,88.93
2022-12-14T15:23:45.337Z,87.85
2022-12-14T15:26:26.413Z,87.64
2022-12-14T15:28:58.168Z,88.66
2022-12-14T15:31:33.775Z,88.82
2022-12-14T15:34:01.831Z,88.29
2022-12-14T15:36:32.124Z,88.51
2022-12-14T15:38:58.899Z,88.80
2022-12-14T15:41:28.780Z,88.33
2022-12-14T15:44:00.321Z,88.55
2022-12-14T15:46:40.229Z,88.25
2022-12-14T15:49:10.614Z,88.17
2022-12-14T15:51:43.372Z,88.85
2022-12-14T15:54:20.718Z,88.90
2022-12-14T15:56:51.025Z,88.02
2022-12-14T15:59:32.430Z,87.53
2022-12-14T16:02:29.065Z,87.87
2022-12-14T16:05:01.375Z,88.24
2022-12-14T16:07:39.206Z,87.70
2022-12-14T16:10:22.717Z,88.25
2022-12-14T16:12:52.493Z,88.26
2022-12-14T16:15:22.307Z,88.03
2022-12-14T16:17:53.653Z,87.81
2022-12-14T16:20:30.261Z,88.99
2022-12-14T16:23:01.439Z,88.92
2022-12-14T16:25:30.107Z,89.88
2022-12-14T16:27:56.832Z,89.18
2022-12-14T16:30:33.319Z,89.57
2022-12-14T16:33:05.948Z,89.51
2022-12-14T16:35:35.262Z,88.54
2022-12-14T16:38:16.218Z,87.33
2022-12-14T16:40:48.536Z,87.54
2022-12-14T16:43:30.782Z,87.58
2022-12-14T16:46:00.430Z,87.53
2022-12-14T16:48:28.739Z,87.59
2022-12-14T16:51:32.976Z,86.38
2022-12-14T16:54:23.959Z,86.08
2022-12-14T16:56:58.176Z,86.29
2022-12-14T16:59:55.078Z,86.46
2022-12-14T17:02:30.448Z,86.40
2022-12-14T17:04:59.935Z,87.09
2022-12-14T17:07:29.617Z,87.16
2022-12-14T17:09:56.515Z,86.43
2022-12-14T17:12:24.933Z,87.27
2022-12-14T17:14:52.222Z,87.05
2022-12-14T17:17:26.790Z,85.94
2022-12-14T17:19:55.906Z,87.67
2022-12-14T17:22:26.364Z,87.45
2022-12-14T17:24:53.032Z,88.14
2022-12-14T17:27:26.656Z,87.87
2022-12-14T17:29:57.240Z,89.22
2022-12-14T17:32:27.679Z,91.93
2022-12-14T17:34:54.101Z,93.30
2022-12-14T17:37:23.757Z,94.36
2022-12-14T17:39:50.867Z,93.47
2022-12-14T17:42:20.434Z,91.88
2022-12-14T17:45:05.036Z,90.98
2022-12-14T17:47:31.535Z,90.10
2022-12-14T17:49:57.992Z,89.81
2022-12-14T17:52:28.930Z,89.23
2022-12-14T17:54:55.248Z,88.22
2022-12-14T17:57:23.565Z,88.55
2022-12-14T18:00:10.270Z,88.63
2022-12-14T18:02:37.732Z,87.71
2022-12-14T18:05:04.577Z,86.27
2022-12-14T18:07:30.966Z,87.62
2022-12-14T18:09:57.646Z,87.58
2022-12-14T18:12:25.761Z,86.37
2022-12-14T18:14:52.410Z,86.76
2022-12-14T18:17:18.942Z,86.52
2022-12-14T18:19:45.354Z,86.56
2022-12-14T18:22:14.389Z,86.70
2022-12-14T18:24:40.857Z,86.09
2022-12-14T18:27:07.377Z,85.54
2022-12-14T18:29:33.810Z,85.60
2022-12-14T18:32:00.310Z,85.12
2022-12-14T18:34:26.806Z,85.20
2022-12-14T18:36:53.206Z,86.06
2022-12-14T18:39:19.814Z,86.34
2022-12-14T18:41:46.200Z,86.72
2022-12-14T18:44:12.607Z,86.81
2022-12-14T18:46:39.541Z,85.72
2022-12-14T18:49:06.691Z,86.07
2022-12-14T18:51:36.180Z,85.77
2022-12-14T18:54:03.269Z,86.88
2022-12-14T18:56:29.708Z,86.05
2022-12-14T18:58:56.290Z,86.29
2022-12-14T19:01:24.677Z,85.08
2022-12-14T19:03:51.734Z,84.67
2022-12-14T19:09:09.965Z,84.78
2022-12-14T19:11:41.971Z,83.76
2022-12-14T19:14:08.872Z,83.68
2022-12-14T19:16:35.366Z,84.28
2022-12-14T19:19:01.858Z,84.22
2022-12-14T19:21:31.801Z,82.98
2022-12-14T19:23:59.743Z,83.40
2022-12-14T19:26:28.086Z,83.33
2022-12-14T19:28:54.478Z,82.11
2022-12-14T19:31:20.942Z,82.67
2022-12-14T19:33:47.402Z,83.41
2022-12-14T19:36:13.795Z,83.47
2022-12-14T19:38:40.227Z,83.37
2022-12-14T19:41:10.722Z,83.18
2022-12-14T19:43:37.416Z,83.86
2022-12-14T19:46:08.905Z,84.02
2022-12-14T19:48:35.387Z,83.57
2022-12-14T19:51:10.641Z,83.47
2022-12-14T19:53:37.761Z,83.83
2022-12-14T19:56:04.616Z,84.30
2022-12-14T19:58:31.022Z,82.74
2022-12-14T20:00:58.370Z,82.01
2022-12-14T20:03:24.907Z,83.11
2022-12-14T20:05:55.813Z,82.41
2022-12-14T20:08:23.427Z,82.63
2022-12-14T20:10:52.632Z,82.37
2022-12-14T20:13:19.792Z,82.46
2022-12-14T20:15:50.715Z,82.85
2022-12-14T20:18:17.293Z,82.84
2022-12-14T20:20:43.936Z,82.38
2022-12-14T20:23:17.262Z,82.27
2022-12-14T20:25:43.682Z,81.21
2022-12-14T20:28:14.315Z,82.08
2022-12-14T20:30:45.480Z,81.00
2022-12-14T20:33:12.646Z,81.01
2022-12-14T20:35:39.139Z,81.13
2022-12-14T20:38:05.533Z,80.82
2022-12-14T20:40:38.007Z,81.21
2022-12-14T20:43:05.151Z,81.29
2022-12-14T20:45:31.557Z,81.50
2022-12-14T20:47:57.946Z,81.41
2022-12-14T20:50:24.354Z,80.55
2022-12-14T20:52:50.734Z,81.02
2022-12-14T20:55:17.263Z,80.33
2022-12-14T20:57:43.658Z,81.44
2022-12-14T21:00:10.535Z,81.19
2022-12-14T21:02:37.085Z,81.81
2022-12-14T21:05:03.985Z,81.24
2022-12-14T21:07:31.704Z,80.98
2022-12-14T21:09:58.449Z,80.67
2022-12-14T21:12:25.709Z,80.33
2022-12-14T21:14:54.260Z,79.73
2022-12-14T21:17:23.213Z,80.51
2022-12-14T21:19:50.354Z,80.59
2022-12-14T21:22:26.025Z,80.62
2022-12-14T21:25:08.288Z,81.23
2022-12-14T21:27:38.240Z,81.02
2022-12-14T21:30:07.202Z,80.48
2022-12-14T21:32:35.547Z,79.98
2022-12-14T21:35:01.996Z,79.47
2022-12-14T21:37:28.378Z,80.04
2022-12-14T21:39:55.741Z,79.83
2022-12-14T21:42:23.633Z,79.58
2022-12-14T21:44:51.939Z,79.39
2022-12-14T21:47:24.670Z,80.19
2022-12-14T21:49:51.299Z,79.80
2022-12-14T21:52:20.393Z,79.71
2022-12-14T21:54:46.779Z,79.47
2022-12-14T21:57:37.265Z,79.42
2022-12-14T22:00:05.500Z,78.94
2022-12-14T22:02:39.608Z,78.82
2022-12-14T22:05:06.631Z,79.77
2022-12-14T22:07:34.202Z,79.52
2022-12-14T22:10:00.692Z,79.61
2022-12-14T22:12:27.328Z,79.56
2022-12-14T22:14:53.739Z,78.83
2022-12-14T22:17:20.154Z,79.08
2022-12-14T22:19:46.617Z,79.10
2022-12-14T22:22:15.290Z,78.84
2022-12-14T22:24:41.951Z,79.52
2022-12-14T22:27:10.003Z,78.91
2022-12-14T22:29:36.397Z,78.78
2022-12-14T22:32:02.917Z,79.11
2022-12-14T22:34:29.411Z,79.04
2022-12-14T22:36:56.013Z,78.98
2022-12-14T22:39:22.636Z,78.42
2022-12-14T22:41:49.488Z,78.69
2022-12-14T22:44:15.883Z,78.92
2022-12-14T22:46:42.344Z,79.58
2022-12-14T22:49:14.265Z,79.84
2022-12-14T22:51:41.094Z,79.03
2022-12-14T22:54:07.489Z,78.24
2022-12-14T22:56:48.131Z,78.68
2022-12-14T22:59:23.338Z,78.39
2022-12-14T23:01:50.550Z,79.20
2022-12-14T23:04:17.461Z,79.49
2022-12-14T23:06:44.867Z,79.21
2022-12-14T23:09:30.603Z,78.21
2022-12-14T23:12:21.262Z,78.94
2022-12-14T23:15:06.770Z,78.26
2022-12-14T23:17:51.592Z,78.46
2022-12-14T23:20:36.862Z,77.81
2022-12-14T23:23:26.069Z,78.13
2022-12-14T23:26:12.016Z,78.08
2022-12-14T23:28:57.591Z,78.36
2022-12-14T23:31:42.970Z,78.49
2022-12-14T23:34:28.460Z,77.95
2022-12-14T23:37:18.216Z,78.27
2022-12-14T23:40:05.632Z,78.16
2022-12-14T23:42:50.566Z,77.74
2022-12-14T23:45:35.568Z,78.25
2022-12-14T23:48:20.761Z,77.51
2022-12-14T23:51:06.062Z,78.49
2022-12-14T23:53:51.211Z,78.00
2022-12-14T23:56:36.291Z,77.60
2022-12-14T23:59:24.864Z,77.85
